createdAt,value
2023-03-27T00:00:21.075Z,0.00
2023-03-27T00:01:21.010Z,0.00
2023-03-27T00:02:21.103Z,0.00
2023-03-27T00:03:21.036Z,0.00
2023-03-27T00:04:21.146Z,0.00
2023-03-27T00:05:20.970Z,0.00
2023-03-27T00:06:20.946Z,0.00
2023-03-27T00:07:20.976Z,0.00
2023-03-27T00:08:20.944Z,0.00
2023-03-27T00:09:20.987Z,0.00
2023-03-27T00:10:20.895Z,0.00
2023-03-27T00:11:20.912Z,0.00
2023-03-27T00:12:20.872Z,0.00
2023-03-27T00:13:20.905Z,0.00
2023-03-27T00:14:20.865Z,0.00
2023-03-27T00:15:20.873Z,0.00
2023-03-27T00:16:20.848Z,0.00
2023-03-27T00:17:20.904Z,0.00
2023-03-27T00:18:20.845Z,0.00
2023-03-27T00:19:20.812Z,0.00
2023-03-27T00:20:20.831Z,0.00
2023-03-27T00:21:20.818Z,0.00
2023-03-27T00:22:20.833Z,0.00
2023-03-27T00:23:20.795Z,0.00
2023-03-27T00:24:20.765Z,0.00
2023-03-27T00:25:20.773Z,0.00
2023-03-27T00:26:20.780Z,0.00
2023-03-27T00:27:20.773Z,0.00
2023-03-27T00:28:20.723Z,0.00
2023-03-27T00:29:20.762Z,0.00
2023-03-27T00:30:20.743Z,0.00
2023-03-27T00:31:20.746Z,0.00
2023-03-27T00:32:20.739Z,0.00
2023-03-27T00:33:20.745Z,0.00
2023-03-27T00:34:20.683Z,0.00
2023-03-27T00:35:20.749Z,0.00
2023-03-27T00:36:20.714Z,0.00
2023-03-27T00:37:20.678Z,0.00
2023-03-27T00:38:21.620Z,0.00
2023-03-27T00:39:20.642Z,0.00
2023-03-27T00:40:20.606Z,0.00
2023-03-27T00:41:20.642Z,0.00
2023-03-27T00:42:20.623Z,0.00
2023-03-27T00:43:20.619Z,0.00
2023-03-27T00:44:20.680Z,0.00
2023-03-27T00:45:20.601Z,0.00
2023-03-27T00:46:20.679Z,0.00
2023-03-27T00:47:20.582Z,0.00
2023-03-27T00:48:20.523Z,0.00
2023-03-27T00:49:21.538Z,0.00
2023-03-27T00:50:20.571Z,0.00
2023-03-27T00:51:20.544Z,0.00
2023-03-27T00:52:20.532Z,0.00
2023-03-27T00:53:20.515Z,0.00
2023-03-27T00:54:20.510Z,0.00
2023-03-27T00:55:20.545Z,0.00
2023-03-27T00:56:20.472Z,0.00
2023-03-27T00:57:20.488Z,0.00
2023-03-27T00:58:20.443Z,0.00
2023-03-27T00:59:20.428Z,0.00
2023-03-27T01:00:20.420Z,0.00
2023-03-27T01:01:20.469Z,0.00
2023-03-27T01:02:20.478Z,0.00
2023-03-27T01:03:20.503Z,0.00
2023-03-27T01:04:20.493Z,0.00
2023-03-27T01:05:20.386Z,0.00
2023-03-27T01:06:20.416Z,0.00
2023-03-27T01:07:20.394Z,0.00
2023-03-27T01:08:20.340Z,0.00
2023-03-27T01:09:21.631Z,0.00
2023-03-27T01:10:20.345Z,0.00
2023-03-27T01:11:20.332Z,0.00
2023-03-27T01:12:20.356Z,0.00
2023-03-27T01:13:20.308Z,0.00
2023-03-27T01:14:20.291Z,0.00
2023-03-27T01:15:20.288Z,0.00
2023-03-27T01:16:20.311Z,0.00
2023-03-27T01:17:20.323Z,0.00
2023-03-27T01:18:20.257Z,0.00
2023-03-27T01:19:20.261Z,0.00
2023-03-27T01:20:20.249Z,0.00
2023-03-27T01:21:20.236Z,0.00
2023-03-27T01:22:20.227Z,0.00
2023-03-27T01:23:58.465Z,0.00
2023-03-27T01:24:22.197Z,0.00
2023-03-27T01:25:20.207Z,0.00
2023-03-27T01:26:36.010Z,0.00
2023-03-27T01:27:21.223Z,0.00
2023-03-27T01:28:20.179Z,0.00
2023-03-27T01:29:20.161Z,0.00
2023-03-27T01:30:20.150Z,0.00
2023-03-27T01:31:20.152Z,0.00
2023-03-27T01:32:20.142Z,0.00
2023-03-27T01:33:20.111Z,0.00
2023-03-27T01:34:20.125Z,0.00
2023-03-27T01:35:21.017Z,0.00
2023-03-27T01:36:21.092Z,0.00
2023-03-27T01:37:20.083Z,0.00
2023-03-27T01:38:20.094Z,0.00
2023-03-27T01:39:20.061Z,0.00
2023-03-27T01:40:20.071Z,0.00
2023-03-27T01:41:20.050Z,0.00
2023-03-27T01:42:20.060Z,0.00
2023-03-27T01:43:20.016Z,0.00
2023-03-27T01:44:20.083Z,0.00
2023-03-27T01:45:20.048Z,0.00
2023-03-27T01:46:20.031Z,0.00
2023-03-27T01:47:19.980Z,0.00
2023-03-27T01:48:19.995Z,0.00
2023-03-27T01:49:19.987Z,0.00
2023-03-27T01:50:19.953Z,0.00
2023-03-27T01:51:19.985Z,0.00
2023-03-27T01:52:19.957Z,0.00
2023-03-27T01:53:19.928Z,0.00
2023-03-27T01:54:19.926Z,0.00
2023-03-27T01:55:19.938Z,0.00
2023-03-27T01:56:19.910Z,0.00
2023-03-27T01:57:19.931Z,0.00
2023-03-27T01:58:19.896Z,0.00
2023-03-27T01:59:19.893Z,0.00
2023-03-27T02:00:19.900Z,0.00
2023-03-27T02:01:19.889Z,0.00
2023-03-27T02:02:19.844Z,0.00
2023-03-27T02:03:19.823Z,0.00
2023-03-27T02:04:19.869Z,0.00
2023-03-27T02:05:19.859Z,0.00
2023-03-27T02:06:51.723Z,0.00
2023-03-27T02:07:19.807Z,0.00
2023-03-27T02:08:19.801Z,0.00
2023-03-27T02:09:19.889Z,0.00
2023-03-27T02:10:19.783Z,0.00
2023-03-27T02:11:19.775Z,0.00
2023-03-27T02:12:19.776Z,0.00
2023-03-27T02:13:19.803Z,0.00
2023-03-27T02:14:19.749Z,0.00
2023-03-27T02:15:23.160Z,0.00
2023-03-27T02:16:20.747Z,0.00
2023-03-27T02:17:19.815Z,0.00
2023-03-27T02:18:19.731Z,0.00
2023-03-27T02:19:19.723Z,0.00
2023-03-27T02:20:19.701Z,0.00
2023-03-27T02:21:19.675Z,0.00
2023-03-27T02:22:19.642Z,0.00
2023-03-27T02:23:19.659Z,0.00
2023-03-27T02:24:19.652Z,0.00
2023-03-27T02:25:19.627Z,0.00
2023-03-27T02:26:19.622Z,0.00
2023-03-27T02:27:19.596Z,0.00
2023-03-27T02:28:19.593Z,0.00
2023-03-27T02:29:19.594Z,0.00
2023-03-27T02:30:19.575Z,0.00
2023-03-27T02:31:33.711Z,0.00
2023-03-27T02:32:20.623Z,0.00
2023-03-27T02:33:19.647Z,0.00
2023-03-27T02:34:19.558Z,0.00
2023-03-27T02:35:19.552Z,0.00
2023-03-27T02:36:19.515Z,0.00
2023-03-27T02:37:19.517Z,0.00
2023-03-27T02:38:19.527Z,0.00
2023-03-27T02:39:19.495Z,0.00
2023-03-27T02:40:19.487Z,0.00
2023-03-27T02:41:19.457Z,0.00
2023-03-27T02:42:19.493Z,0.00
2023-03-27T02:43:19.465Z,0.00
2023-03-27T02:44:19.457Z,0.00
2023-03-27T02:45:19.422Z,0.00
2023-03-27T02:46:19.463Z,0.00
2023-03-27T02:47:19.429Z,0.00
2023-03-27T02:48:19.423Z,0.00
2023-03-27T02:49:19.423Z,0.00
2023-03-27T02:50:19.413Z,0.00
2023-03-27T02:51:19.407Z,0.00
2023-03-27T02:52:19.381Z,0.00
2023-03-27T02:53:19.383Z,0.00
2023-03-27T02:54:19.399Z,0.00
2023-03-27T02:55:19.368Z,0.00
2023-03-27T02:56:19.337Z,0.00
2023-03-27T02:57:19.327Z,0.00
2023-03-27T02:58:19.307Z,0.00
2023-03-27T02:59:19.346Z,0.00
2023-03-27T03:00:20.300Z,0.00
2023-03-27T03:01:19.309Z,0.00
2023-03-27T03:02:19.411Z,0.00
2023-03-27T03:03:19.347Z,0.00
2023-03-27T03:04:19.248Z,0.00
2023-03-27T03:05:19.252Z,0.00
2023-03-27T03:06:19.237Z,0.00
2023-03-27T03:07:19.214Z,0.00
2023-03-27T03:08:19.232Z,0.00
2023-03-27T03:09:19.197Z,0.00
2023-03-27T03:10:19.227Z,0.00
2023-03-27T03:11:19.188Z,0.00
2023-03-27T03:12:19.194Z,0.00
2023-03-27T03:13:19.196Z,0.00
2023-03-27T03:14:19.173Z,0.00
2023-03-27T03:15:19.144Z,0.00
2023-03-27T03:16:19.222Z,0.00
2023-03-27T03:17:19.130Z,0.00
2023-03-27T03:18:19.111Z,0.00
2023-03-27T03:19:19.124Z,0.00
2023-03-27T03:20:19.104Z,0.00
2023-03-27T03:21:19.090Z,0.00
2023-03-27T03:22:19.107Z,0.00
2023-03-27T03:23:19.097Z,0.00
2023-03-27T03:24:19.088Z,0.00
2023-03-27T03:25:19.052Z,0.00
2023-03-27T03:26:19.101Z,0.00
2023-03-27T03:27:19.051Z,0.00
2023-03-27T03:28:19.025Z,0.00
2023-03-27T03:29:19.101Z,0.00
2023-03-27T03:30:19.004Z,0.00
2023-03-27T03:31:19.035Z,0.00
2023-03-27T03:32:19.004Z,0.00
2023-03-27T03:33:19.003Z,0.00
2023-03-27T03:34:19.145Z,0.00
2023-03-27T03:35:18.944Z,0.00
2023-03-27T03:36:18.940Z,0.00
2023-03-27T03:37:18.917Z,0.00
2023-03-27T03:38:18.928Z,0.00
2023-03-27T03:39:18.948Z,0.00
2023-03-27T03:40:18.912Z,0.00
2023-03-27T03:41:18.919Z,0.00
2023-03-27T03:42:22.330Z,0.00
2023-03-27T03:43:18.869Z,0.00
2023-03-27T03:44:18.912Z,0.00
2023-03-27T03:45:18.881Z,0.00
2023-03-27T03:46:18.915Z,0.00
2023-03-27T03:47:18.840Z,0.00
2023-03-27T03:48:18.829Z,0.00
2023-03-27T03:49:18.822Z,0.00
2023-03-27T03:50:18.832Z,0.00
2023-03-27T03:51:18.811Z,0.00
2023-03-27T03:52:18.835Z,0.00
2023-03-27T03:53:18.811Z,0.00
2023-03-27T03:54:18.774Z,0.00
2023-03-27T03:55:18.779Z,0.00
2023-03-27T03:56:18.777Z,0.00
2023-03-27T03:57:18.804Z,0.00
2023-03-27T03:58:18.748Z,0.00
2023-03-27T03:59:18.730Z,0.00
2023-03-27T04:00:18.734Z,0.00
2023-03-27T04:01:18.724Z,0.00
2023-03-27T04:02:18.736Z,0.00
2023-03-27T04:03:18.813Z,0.00
2023-03-27T04:04:18.707Z,0.00
2023-03-27T04:05:18.714Z,0.00
2023-03-27T04:06:20.485Z,0.00
2023-03-27T04:07:18.665Z,0.00
2023-03-27T04:08:18.640Z,0.00
2023-03-27T04:09:18.646Z,0.00
2023-03-27T04:10:18.602Z,0.00
2023-03-27T04:11:18.608Z,0.00
2023-03-27T04:12:18.625Z,0.00
2023-03-27T04:13:18.601Z,0.00
2023-03-27T04:14:18.612Z,0.00
2023-03-27T04:15:18.588Z,0.00
2023-03-27T04:16:18.585Z,0.00
2023-03-27T04:17:18.561Z,0.00
2023-03-27T04:18:18.599Z,0.00
2023-03-27T04:19:18.546Z,0.00
2023-03-27T04:20:18.537Z,0.00
2023-03-27T04:21:18.515Z,0.00
2023-03-27T04:22:18.485Z,0.00
2023-03-27T04:23:18.511Z,0.00
2023-03-27T04:24:18.469Z,0.00
2023-03-27T04:25:18.549Z,0.00
2023-03-27T04:26:18.499Z,0.00
2023-03-27T04:27:18.455Z,0.00
2023-03-27T04:28:18.511Z,4.00
2023-03-27T04:29:18.472Z,4.00
2023-03-27T04:30:18.437Z,0.00
2023-03-27T04:31:18.428Z,0.00
2023-03-27T04:32:18.433Z,0.00
2023-03-27T04:33:18.557Z,4.00
2023-03-27T04:34:18.416Z,4.00
2023-03-27T04:35:18.373Z,4.00
2023-03-27T04:36:18.442Z,4.00
2023-03-27T04:37:18.377Z,8.00
2023-03-27T04:38:19.354Z,8.00
2023-03-27T04:39:18.376Z,8.00
2023-03-27T04:40:18.390Z,8.00
2023-03-27T04:41:18.302Z,8.00
2023-03-27T04:42:18.307Z,12.00
2023-03-27T04:43:19.337Z,16.00
2023-03-27T04:44:18.342Z,16.00
2023-03-27T04:45:18.309Z,20.00
2023-03-27T04:46:18.368Z,28.00
2023-03-27T04:47:18.291Z,32.00
2023-03-27T04:48:18.282Z,36.00
2023-03-27T04:49:18.269Z,44.00
2023-03-27T04:50:18.280Z,52.00
2023-03-27T04:51:18.255Z,60.00
2023-03-27T04:52:18.248Z,72.00
2023-03-27T04:53:18.230Z,80.00
2023-03-27T04:54:18.218Z,92.00
2023-03-27T04:55:18.254Z,100.00
2023-03-27T04:56:18.206Z,120.00
2023-03-27T04:57:18.225Z,144.00
2023-03-27T04:58:18.191Z,164.00
2023-03-27T04:59:18.167Z,192.00
2023-03-27T05:00:18.215Z,224.00
2023-03-27T05:01:18.170Z,260.00
2023-03-27T05:02:18.154Z,300.00
2023-03-27T05:03:18.166Z,340.00
2023-03-27T05:04:18.109Z,384.00
2023-03-27T05:05:18.090Z,432.00
2023-03-27T05:06:18.151Z,484.00
2023-03-27T05:07:18.052Z,536.00
2023-03-27T05:08:18.082Z,588.00
2023-03-27T05:09:18.078Z,648.00
2023-03-27T05:10:21.697Z,708.00
2023-03-27T05:11:18.079Z,772.00
2023-03-27T05:12:18.031Z,832.00
2023-03-27T05:13:18.040Z,904.00
2023-03-27T05:14:18.047Z,972.00
2023-03-27T05:15:18.001Z,1048.00
2023-03-27T05:16:18.020Z,1120.00
2023-03-27T05:17:17.993Z,1204.00
2023-03-27T05:18:17.947Z,1288.00
2023-03-27T05:19:17.974Z,1376.00
2023-03-27T05:20:18.070Z,1472.00
2023-03-27T05:21:17.953Z,1592.00
2023-03-27T05:22:17.913Z,1748.00
2023-03-27T05:23:17.941Z,1932.00
2023-03-27T05:24:17.930Z,2108.00
2023-03-27T05:25:17.940Z,2280.00
2023-03-27T05:26:17.904Z,2428.00
2023-03-27T05:27:17.889Z,2560.00
2023-03-27T05:28:17.914Z,2692.00
2023-03-27T05:29:17.867Z,2816.00
2023-03-27T05:30:17.864Z,2888.00
2023-03-27T05:31:17.936Z,2984.00
2023-03-27T05:32:17.830Z,3168.00
2023-03-27T05:33:17.895Z,3288.00
2023-03-27T05:34:17.821Z,3236.00
2023-03-27T05:35:17.920Z,3148.00
2023-03-27T05:36:17.852Z,2980.00
2023-03-27T05:37:17.793Z,2860.00
2023-03-27T05:38:17.812Z,2868.00
2023-03-27T05:39:17.800Z,2932.00
2023-03-27T05:40:17.778Z,3136.00
2023-03-27T05:41:17.737Z,3424.00
2023-03-27T05:42:17.749Z,4012.00
2023-03-27T05:43:17.785Z,4164.00
2023-03-27T05:44:17.759Z,4680.00
2023-03-27T05:45:17.738Z,5088.00
2023-03-27T05:46:20.868Z,13952.00
2023-03-27T05:47:17.717Z,7408.00
2023-03-27T05:48:17.713Z,20096.00
2023-03-27T05:49:17.686Z,6756.00
2023-03-27T05:50:17.672Z,18944.00
2023-03-27T05:51:17.657Z,12304.00
2023-03-27T05:52:17.775Z,15904.00
2023-03-27T05:53:17.650Z,30048.00
2023-03-27T05:54:17.668Z,31488.00
2023-03-27T05:55:17.646Z,33440.00
2023-03-27T05:56:17.617Z,35072.00
2023-03-27T05:57:17.752Z,35392.00
2023-03-27T05:58:17.581Z,36320.00
2023-03-27T05:59:17.591Z,37664.00
2023-03-27T06:00:17.605Z,38720.00
2023-03-27T06:01:17.570Z,40192.00
2023-03-27T06:02:19.184Z,40864.00
2023-03-27T06:03:17.689Z,41664.00
2023-03-27T06:04:17.577Z,42656.00
2023-03-27T06:05:17.540Z,43168.00
2023-03-27T06:06:17.518Z,43776.00
2023-03-27T06:07:17.530Z,44096.00
2023-03-27T06:08:17.507Z,44128.00
2023-03-27T06:09:17.486Z,43488.00
2023-03-27T06:10:17.485Z,43456.00
2023-03-27T06:11:17.466Z,43712.00
2023-03-27T06:12:17.459Z,44832.00
2023-03-27T06:13:17.499Z,46464.00
2023-03-27T06:14:17.445Z,48544.00
2023-03-27T06:15:17.434Z,49728.00
2023-03-27T06:16:17.475Z,49920.00
2023-03-27T06:17:17.413Z,48928.00
2023-03-27T06:18:17.388Z,49312.00
2023-03-27T06:19:17.469Z,50464.00
2023-03-27T06:20:17.405Z,51680.00
2023-03-27T06:21:17.383Z,52768.00
2023-03-27T06:22:17.336Z,53152.00
2023-03-27T06:23:17.354Z,54272.00
2023-03-27T06:24:17.357Z,54656.00
2023-03-27T06:25:17.395Z,54464.00
2023-03-27T06:26:17.318Z,54784.00
2023-03-27T06:27:17.383Z,52384.00
2023-03-27T06:28:17.283Z,12708.00
2023-03-27T06:29:17.307Z,10012.00
2023-03-27T06:30:17.392Z,10472.00
2023-03-27T06:31:17.356Z,14116.00
2023-03-27T06:32:17.310Z,14128.00
2023-03-27T06:33:17.250Z,59360.00
2023-03-27T06:34:17.261Z,59424.00
2023-03-27T06:35:18.836Z,58592.00
2023-03-27T06:36:17.244Z,54336.00
2023-03-27T06:37:17.210Z,31712.00
2023-03-27T06:38:17.221Z,52416.00
2023-03-27T06:39:17.244Z,60480.00
2023-03-27T06:40:17.329Z,53696.00
2023-03-27T06:41:17.188Z,61440.00
2023-03-27T06:42:17.181Z,62912.00
2023-03-27T06:43:17.146Z,30784.00
2023-03-27T06:44:17.126Z,29504.00
2023-03-27T06:45:17.173Z,16256.00
2023-03-27T06:46:17.145Z,21792.00
2023-03-27T06:47:17.160Z,59808.00
2023-03-27T06:48:20.572Z,54720.00
2023-03-27T06:49:18.094Z,27392.00
2023-03-27T06:50:17.106Z,17248.00
2023-03-27T06:51:17.103Z,15128.00
2023-03-27T06:52:17.064Z,41696.00
2023-03-27T06:53:26.737Z,12960.00
2023-03-27T06:54:19.095Z,12232.00
2023-03-27T06:55:17.073Z,12196.00
2023-03-27T06:56:17.042Z,11188.00
2023-03-27T06:57:17.196Z,12492.00
2023-03-27T06:58:17.053Z,12296.00
2023-03-27T06:59:16.998Z,11152.00
2023-03-27T07:00:17.037Z,10788.00
2023-03-27T07:01:17.012Z,11084.00
2023-03-27T07:02:17.038Z,11952.00
2023-03-27T07:03:17.058Z,13508.00
2023-03-27T07:04:16.954Z,14664.00
2023-03-27T07:05:16.935Z,16736.00
2023-03-27T07:06:16.981Z,18272.00
2023-03-27T07:07:17.180Z,53536.00
2023-03-27T07:09:17.897Z,20384.00
2023-03-27T07:10:16.919Z,16832.00
2023-03-27T07:11:17.192Z,16088.00
2023-03-27T07:12:17.857Z,16672.00
2023-03-27T07:13:16.856Z,34240.00
2023-03-27T07:14:16.844Z,22240.00
2023-03-27T07:15:17.259Z,27520.00
2023-03-27T07:16:16.885Z,15384.00
2023-03-27T07:17:16.820Z,15228.00
2023-03-27T07:18:17.809Z,17600.00
2023-03-27T07:19:16.794Z,25408.00
2023-03-27T07:20:16.802Z,17024.00
2023-03-27T07:21:16.778Z,18656.00
2023-03-27T07:22:16.779Z,68096.00
2023-03-27T07:23:16.755Z,32320.00
2023-03-27T07:24:17.725Z,53408.00
2023-03-27T07:25:16.754Z,61280.00
2023-03-27T07:26:16.738Z,46624.00
2023-03-27T07:27:16.735Z,80960.00
2023-03-27T07:28:16.745Z,76544.00
2023-03-27T07:29:16.762Z,67008.00
2023-03-27T07:30:16.679Z,66240.00
2023-03-27T07:31:32.583Z,63808.00
2023-03-27T07:32:29.505Z,65344.00
2023-03-27T07:33:18.752Z,64480.00
2023-03-27T07:34:16.815Z,62752.00
2023-03-27T07:35:16.671Z,61824.00
2023-03-27T07:36:16.636Z,62016.00
2023-03-27T07:37:16.638Z,63200.00
2023-03-27T07:38:16.633Z,64768.00
2023-03-27T07:39:16.590Z,52480.00
2023-03-27T07:40:17.353Z,38048.00
2023-03-27T07:41:16.586Z,46560.00
2023-03-27T07:42:16.583Z,54336.00
2023-03-27T07:43:16.626Z,60096.00
2023-03-27T07:44:16.562Z,40864.00
2023-03-27T07:45:16.559Z,56960.00
2023-03-27T07:46:16.592Z,58080.00
2023-03-27T07:47:16.518Z,59904.00
2023-03-27T07:48:16.510Z,56800.00
2023-03-27T07:49:16.499Z,56128.00
2023-03-27T07:50:16.493Z,55744.00
2023-03-27T07:51:16.480Z,55104.00
2023-03-27T07:52:16.667Z,49888.00
2023-03-27T07:53:34.042Z,52736.00
2023-03-27T07:54:17.455Z,52928.00
2023-03-27T07:55:16.447Z,54240.00
2023-03-27T07:56:16.489Z,36000.00
2023-03-27T07:57:16.496Z,43648.00
2023-03-27T07:58:16.540Z,14428.00
2023-03-27T07:59:16.402Z,15928.00
2023-03-27T08:00:16.388Z,29216.00
2023-03-27T08:01:16.453Z,25856.00
2023-03-27T08:02:16.366Z,30240.00
2023-03-27T08:03:16.496Z,19104.00
2023-03-27T08:04:16.441Z,22752.00
2023-03-27T08:05:16.383Z,29856.00
2023-03-27T08:07:48.237Z,15296.00
2023-03-27T08:08:16.351Z,13604.00
2023-03-27T08:09:16.352Z,12584.00
2023-03-27T08:10:16.315Z,11864.00
2023-03-27T08:11:29.578Z,9756.00
2023-03-27T08:12:18.306Z,8220.00
2023-03-27T08:13:16.286Z,7940.00
2023-03-27T08:14:16.278Z,7476.00
2023-03-27T08:15:16.263Z,7356.00
2023-03-27T08:16:16.332Z,8380.00
2023-03-27T08:17:17.716Z,9164.00
2023-03-27T08:18:16.248Z,9168.00
2023-03-27T08:19:16.219Z,8900.00
2023-03-27T08:20:16.226Z,7988.00
2023-03-27T08:21:16.184Z,7740.00
2023-03-27T08:22:16.182Z,7820.00
2023-03-27T08:23:16.196Z,7536.00
2023-03-27T08:24:16.170Z,7020.00
2023-03-27T08:25:16.207Z,6276.00
2023-03-27T08:26:16.125Z,5424.00
2023-03-27T08:27:16.228Z,5012.00
2023-03-27T08:28:16.115Z,4684.00
2023-03-27T08:29:16.233Z,4156.00
2023-03-27T08:30:16.919Z,4616.00
2023-03-27T08:31:17.174Z,5344.00
2023-03-27T08:32:16.087Z,5884.00
2023-03-27T08:33:16.080Z,6152.00
2023-03-27T08:34:16.048Z,6272.00
2023-03-27T08:35:16.147Z,6424.00
2023-03-27T08:36:16.115Z,7204.00
2023-03-27T08:37:16.020Z,8772.00
2023-03-27T08:38:26.291Z,11012.00
2023-03-27T08:39:18.075Z,19680.00
2023-03-27T08:40:16.013Z,24928.00
2023-03-27T08:41:16.013Z,31040.00
2023-03-27T08:42:18.443Z,29984.00
2023-03-27T08:43:15.975Z,25312.00
2023-03-27T08:44:15.948Z,25216.00
2023-03-27T08:45:15.960Z,23072.00
2023-03-27T08:46:16.022Z,33856.00
2023-03-27T08:47:15.965Z,32608.00
2023-03-27T08:48:15.947Z,27264.00
2023-03-27T08:49:15.927Z,26368.00
2023-03-27T08:50:15.928Z,27616.00
2023-03-27T08:51:15.938Z,31552.00
2023-03-27T08:52:15.866Z,29376.00
2023-03-27T08:53:16.005Z,27520.00
2023-03-27T08:54:15.933Z,27680.00
2023-03-27T08:55:15.846Z,20512.00
2023-03-27T08:56:15.849Z,28064.00
2023-03-27T08:57:15.897Z,27904.00
2023-03-27T08:58:15.841Z,24128.00
2023-03-27T08:59:17.353Z,30176.00
2023-03-27T09:00:15.790Z,20736.00
2023-03-27T09:01:15.840Z,31520.00
2023-03-27T09:02:15.812Z,21632.00
2023-03-27T09:03:15.936Z,14200.00
2023-03-27T09:04:15.772Z,13268.00
2023-03-27T09:05:15.758Z,11472.00
2023-03-27T09:06:15.724Z,34624.00
2023-03-27T09:07:15.721Z,34112.00
2023-03-27T09:08:15.735Z,36064.00
2023-03-27T09:09:15.717Z,24672.00
2023-03-27T09:10:15.727Z,40640.00
2023-03-27T09:11:15.707Z,41600.00
2023-03-27T09:12:15.686Z,43424.00
2023-03-27T09:13:15.704Z,19584.00
2023-03-27T09:14:15.672Z,11332.00
2023-03-27T09:15:15.697Z,10544.00
2023-03-27T09:16:15.829Z,26848.00
2023-03-27T09:17:15.663Z,15704.00
2023-03-27T09:18:15.632Z,24608.00
2023-03-27T09:19:15.658Z,24960.00
2023-03-27T09:20:15.642Z,26528.00
2023-03-27T09:21:15.612Z,26176.00
2023-03-27T09:22:15.578Z,23328.00
2023-03-27T09:23:15.575Z,22240.00
2023-03-27T09:24:15.585Z,22752.00
2023-03-27T09:25:15.557Z,22112.00
2023-03-27T09:26:15.544Z,15976.00
2023-03-27T09:27:15.527Z,12864.00
2023-03-27T09:28:15.550Z,12348.00
2023-03-27T09:29:20.071Z,12128.00
2023-03-27T09:30:15.500Z,10624.00
2023-03-27T09:31:15.557Z,9780.00
2023-03-27T09:32:15.546Z,9252.00
2023-03-27T09:33:15.542Z,8924.00
2023-03-27T09:34:15.482Z,12700.00
2023-03-27T09:35:15.533Z,17152.00
2023-03-27T09:36:15.509Z,18144.00
2023-03-27T09:37:15.450Z,17760.00
2023-03-27T09:38:15.440Z,12864.00
2023-03-27T09:39:15.449Z,16672.00
2023-03-27T09:40:15.430Z,13592.00
2023-03-27T09:41:15.422Z,11096.00
2023-03-27T09:42:15.417Z,11012.00
2023-03-27T09:43:15.409Z,12040.00
2023-03-27T09:44:15.399Z,11256.00
2023-03-27T09:45:15.400Z,13108.00
2023-03-27T09:46:15.364Z,11748.00
2023-03-27T09:47:15.349Z,12192.00
2023-03-27T09:48:15.364Z,13848.00
2023-03-27T09:49:15.321Z,12296.00
2023-03-27T09:50:15.401Z,11900.00
2023-03-27T09:51:15.304Z,12596.00
2023-03-27T09:52:15.311Z,12940.00
2023-03-27T09:53:15.454Z,15104.00
2023-03-27T09:54:15.291Z,13196.00
2023-03-27T09:55:15.295Z,12240.00
2023-03-27T09:56:15.291Z,11776.00
2023-03-27T09:57:15.329Z,12368.00
2023-03-27T09:58:15.249Z,10440.00
2023-03-27T09:59:15.262Z,9216.00
2023-03-27T10:00:15.270Z,11188.00
2023-03-27T10:01:15.208Z,17728.00
2023-03-27T10:02:15.206Z,17824.00
2023-03-27T10:03:16.746Z,17664.00
2023-03-27T10:04:15.244Z,17216.00
2023-03-27T10:05:15.180Z,17280.00
2023-03-27T10:06:15.171Z,17856.00
2023-03-27T10:07:15.152Z,18624.00
2023-03-27T10:08:15.146Z,18976.00
2023-03-27T10:09:15.142Z,18784.00
2023-03-27T10:10:15.195Z,18048.00
2023-03-27T10:11:15.126Z,17280.00
2023-03-27T10:12:15.171Z,16800.00
2023-03-27T10:13:15.109Z,17056.00
2023-03-27T10:14:15.069Z,17600.00
2023-03-27T10:15:15.076Z,17728.00
2023-03-27T10:16:15.135Z,17664.00
2023-03-27T10:17:15.104Z,18080.00
2023-03-27T10:18:15.088Z,17376.00
2023-03-27T10:19:15.071Z,17088.00
2023-03-27T10:20:15.062Z,17856.00
2023-03-27T10:21:15.037Z,13812.00
2023-03-27T10:22:15.041Z,17376.00
2023-03-27T10:23:15.009Z,17184.00
2023-03-27T10:24:15.013Z,18432.00
2023-03-27T10:25:15.005Z,16800.00
2023-03-27T10:26:14.990Z,10892.00
2023-03-27T10:27:14.955Z,9280.00
2023-03-27T10:28:15.077Z,7932.00
2023-03-27T10:29:14.931Z,7572.00
2023-03-27T10:30:14.940Z,7340.00
2023-03-27T10:31:14.952Z,7484.00
2023-03-27T10:32:14.968Z,8356.00
2023-03-27T10:33:14.936Z,8976.00
2023-03-27T10:34:14.938Z,14268.00
2023-03-27T10:35:14.920Z,14356.00
2023-03-27T10:36:14.865Z,14576.00
2023-03-27T10:37:14.849Z,14240.00
2023-03-27T10:38:14.841Z,13752.00
2023-03-27T10:39:14.865Z,13480.00
2023-03-27T10:40:14.847Z,13084.00
2023-03-27T10:41:14.827Z,11436.00
2023-03-27T10:42:14.829Z,7764.00
2023-03-27T10:43:14.821Z,13036.00
2023-03-27T10:44:14.800Z,8420.00
2023-03-27T10:45:14.818Z,13612.00
2023-03-27T10:46:14.917Z,14160.00
2023-03-27T10:47:14.757Z,15248.00
2023-03-27T10:48:14.748Z,15372.00
2023-03-27T10:49:16.224Z,15036.00
2023-03-27T10:50:15.728Z,15072.00
2023-03-27T10:51:14.720Z,14556.00
2023-03-27T10:52:14.762Z,14184.00
2023-03-27T10:53:14.915Z,9976.00
2023-03-27T10:54:14.785Z,13964.00
2023-03-27T10:55:14.768Z,14544.00
2023-03-27T10:56:14.668Z,14360.00
2023-03-27T10:57:14.771Z,14224.00
2023-03-27T10:58:14.668Z,14152.00
2023-03-27T10:59:14.657Z,13788.00
2023-03-27T11:00:14.753Z,13480.00
2023-03-27T11:01:14.655Z,13132.00
2023-03-27T11:02:14.643Z,12904.00
2023-03-27T11:03:14.730Z,12596.00
2023-03-27T11:04:14.676Z,12392.00
2023-03-27T11:05:14.603Z,12188.00
2023-03-27T11:06:14.575Z,11996.00
2023-03-27T11:07:15.937Z,11828.00
2023-03-27T11:08:15.599Z,11628.00
2023-03-27T11:09:14.583Z,11464.00
2023-03-27T11:10:14.528Z,11452.00
2023-03-27T11:11:14.542Z,11468.00
2023-03-27T11:12:14.538Z,11520.00
2023-03-27T11:13:14.495Z,11452.00
2023-03-27T11:14:14.664Z,12296.00
2023-03-27T11:15:14.480Z,11356.00
2023-03-27T11:16:14.514Z,12136.00
2023-03-27T11:17:14.466Z,12240.00
2023-03-27T11:18:14.464Z,12104.00
2023-03-27T11:19:14.459Z,9072.00
2023-03-27T11:20:14.468Z,8788.00
2023-03-27T11:21:14.439Z,8280.00
2023-03-27T11:22:14.462Z,8300.00
2023-03-27T11:23:14.402Z,8780.00
2023-03-27T11:24:14.419Z,8360.00
2023-03-27T11:25:14.455Z,7656.00
2023-03-27T11:26:14.383Z,11316.00
2023-03-27T11:27:14.757Z,11264.00
2023-03-27T11:28:14.409Z,11008.00
2023-03-27T11:29:14.352Z,11352.00
2023-03-27T11:30:14.370Z,11460.00
2023-03-27T11:31:14.364Z,11820.00
2023-03-27T11:32:14.334Z,12472.00
2023-03-27T11:33:14.321Z,13508.00
2023-03-27T11:34:14.292Z,13180.00
2023-03-27T11:35:15.307Z,12360.00
2023-03-27T11:36:14.282Z,10916.00
2023-03-27T11:37:14.269Z,8628.00
2023-03-27T11:38:14.269Z,8288.00
2023-03-27T11:39:14.307Z,8192.00
2023-03-27T11:40:14.241Z,8188.00
2023-03-27T11:41:15.444Z,7204.00
2023-03-27T11:42:14.261Z,5912.00
2023-03-27T11:43:14.351Z,6036.00
2023-03-27T11:44:15.230Z,7544.00
2023-03-27T11:45:14.233Z,8568.00
2023-03-27T11:46:14.236Z,8628.00
2023-03-27T11:47:14.197Z,8284.00
2023-03-27T11:48:14.268Z,9932.00
2023-03-27T11:49:14.125Z,11132.00
2023-03-27T11:50:14.233Z,11240.00
2023-03-27T11:51:14.142Z,10908.00
2023-03-27T11:52:14.225Z,10736.00
2023-03-27T11:53:14.163Z,10808.00
2023-03-27T11:54:14.079Z,10436.00
2023-03-27T11:55:14.117Z,10088.00
2023-03-27T11:56:14.090Z,10084.00
2023-03-27T11:57:14.128Z,10436.00
2023-03-27T11:58:14.202Z,10204.00
2023-03-27T11:59:14.200Z,9996.00
2023-03-27T12:00:14.051Z,10020.00
2023-03-27T12:01:16.032Z,10012.00
2023-03-27T12:02:14.101Z,9972.00
2023-03-27T12:03:14.076Z,9932.00
2023-03-27T12:04:14.089Z,9956.00
2023-03-27T12:05:14.055Z,10016.00
2023-03-27T12:06:14.012Z,10036.00
2023-03-27T12:07:15.373Z,10020.00
2023-03-27T12:08:13.992Z,10088.00
2023-03-27T12:09:13.967Z,10124.00
2023-03-27T12:10:13.961Z,10160.00
2023-03-27T12:11:13.965Z,10192.00
2023-03-27T12:12:13.957Z,10240.00
2023-03-27T12:13:13.956Z,10280.00
2023-03-27T12:14:18.437Z,10360.00
2023-03-27T12:15:14.894Z,10452.00
2023-03-27T12:16:13.960Z,10564.00
2023-03-27T12:17:13.872Z,10604.00
2023-03-27T12:18:13.896Z,9884.00
2023-03-27T12:19:25.109Z,8244.00
2023-03-27T12:20:15.894Z,8700.00
2023-03-27T12:21:13.843Z,8164.00
2023-03-27T12:22:22.939Z,8272.00
2023-03-27T12:23:15.835Z,8248.00
2023-03-27T12:24:13.868Z,8660.00
2023-03-27T12:25:14.049Z,9644.00